Time;durP1;ratioP1;P1;durP2;ratioP2;P2;SDS_P1;SDS_P2;PMS_P1;PMS_P2;Temp;Humidity;BMP_temperature;BMP_pressure;BME280_temperature;BME280_humidity;BME280_pressure;Samples;Min_cycle;Max_cycle;Signal;HPM_P1;HPM_P2
2022/01/08 00:02:23;;;;;;;99.57;54.47;;;7.60;99.90;;;;;;5046263;28;20431;-68
2022/01/08 00:04:49;;;;;;;9.53;8.10;;;7.60;99.90;;;;;;5049100;28;20210;-67
2022/01/08 00:07:14;;;;;;;8.77;6.10;;;7.60;99.90;;;;;;5027976;28;20181;-67
2022/01/08 00:09:40;;;;;;;7.63;5.80;;;7.60;99.90;;;;;;5049262;28;20185;-67
2022/01/08 00:12:06;;;;;;;7.10;6.40;;;7.60;99.90;;;;;;5047397;28;20179;-68
2022/01/08 00:14:32;;;;;;;6.60;6.00;;;7.50;99.90;;;;;;5053508;28;20564;-67
2022/01/08 00:16:58;;;;;;;7.40;5.90;;;7.50;99.90;;;;;;5054837;28;20430;-67
2022/01/08 00:19:24;;;;;;;7.73;5.97;;;7.50;99.90;;;;;;5035791;28;20184;-67
2022/01/08 00:21:50;;;;;;;7.30;5.90;;;7.50;99.90;;;;;;5054309;28;20234;-68
2022/01/08 00:24:16;;;;;;;8.57;5.80;;;7.50;99.90;;;;;;5054026;28;20462;-73
2022/01/08 00:26:42;;;;;;;7.90;5.90;;;7.30;99.90;;;;;;5046153;28;20867;-67
2022/01/08 00:29:08;;;;;;;6.40;5.80;;;7.50;99.90;;;;;;5042987;28;20620;-66
2022/01/08 00:31:33;;;;;;;6.00;5.50;;;7.60;99.90;;;;;;5025371;28;20815;-67
2022/01/08 00:33:59;;;;;;;8.97;6.50;;;7.60;99.90;;;;;;5049393;28;20192;-68
2022/01/08 00:36:25;;;;;;;5.73;5.23;;;7.70;99.90;;;;;;5048091;28;20784;-68
2022/01/08 00:38:51;;;;;;;7.13;5.90;;;7.60;99.90;;;;;;5020296;28;20663;-68
2022/01/08 00:41:17;;;;;;;6.40;5.80;;;7.70;99.90;;;;;;5027197;28;20438;-75
2022/01/08 00:43:42;;;;;;;6.50;5.87;;;7.60;99.90;;;;;;5042217;28;20229;-68
2022/01/08 00:46:08;;;;;;;6.77;5.50;;;7.60;99.90;;;;;;5043166;28;20221;-69
2022/01/08 00:48:34;;;;;;;6.90;6.30;;;7.60;99.90;;;;;;5041968;28;20256;-68
2022/01/08 00:50:59;;;;;;;6.40;5.70;;;7.60;99.90;;;;;;5043554;28;20182;-68
2022/01/08 00:53:25;;;;;;;8.00;7.20;;;7.60;99.90;;;;;;5040972;28;20184;-68
2022/01/08 00:55:51;;;;;;;6.90;6.20;;;7.60;99.90;;;;;;5042724;28;20519;-68
2022/01/08 00:58:17;;;;;;;6.40;5.80;;;7.60;99.90;;;;;;5043110;28;20193;-76
2022/01/08 01:00:42;;;;;;;7.27;6.50;;;7.50;99.90;;;;;;5023445;28;20185;-67
2022/01/08 01:03:08;;;;;;;7.43;6.73;;;7.60;99.90;;;;;;5041506;28;20653;-68
2022/01/08 01:05:35;;;;;;;6.90;6.20;;;7.60;99.90;;;;;;5041415;28;20263;-67
2022/01/08 01:08:01;;;;;;;6.40;5.80;;;7.50;99.90;;;;;;5043438;28;20456;-68
2022/01/08 01:10:27;;;;;;;6.60;6.00;;;7.60;99.90;;;;;;5046395;28;20430;-67
2022/01/08 01:12:53;;;;;;;9.00;7.00;;;7.60;99.90;;;;;;5040978;28;20458;-69
2022/01/08 01:15:19;;;;;;;7.37;6.77;;;7.60;99.90;;;;;;5042502;28;20451;-74
2022/01/08 01:17:46;;;;;;;6.20;5.70;;;7.60;99.90;;;;;;5042439;28;20456;-67
2022/01/08 01:20:14;;;;;;;7.70;6.70;;;7.60;99.90;;;;;;5024806;28;20633;-66
2022/01/08 01:23:09;;;;;;;10.57;7.40;;;7.50;99.90;;;;;;5034396;28;20415;-67
2022/01/08 01:25:39;;;;;;;6.70;5.93;;;7.60;99.90;;;;;;5048758;28;20544;-67
2022/01/08 01:41:43;;;;;;;8.70;6.70;;;7.50;99.90;;;;;;5042517;28;20404;-67
2022/01/08 01:47:00;;;;;;;11.83;7.77;;;7.70;99.90;;;;;;5042640;28;20418;-67
2022/01/08 01:49:26;;;;;;;7.10;6.40;;;7.60;99.90;;;;;;5021442;28;20425;-68
2022/01/08 01:51:51;;;;;;;7.30;6.60;;;7.60;99.90;;;;;;5039537;28;20420;-68
2022/01/08 01:54:17;;;;;;;8.37;7.50;;;7.30;99.90;;;;;;5034957;28;20284;-75
2022/01/08 01:56:43;;;;;;;8.30;7.50;;;7.50;99.90;;;;;;5034985;28;20193;-67
2022/01/08 01:59:09;;;;;;;8.13;6.80;;;7.50;99.90;;;;;;5032738;28;20269;-67
2022/01/08 02:01:35;;;;;;;8.43;7.60;;;7.50;99.90;;;;;;5040640;28;20980;-67
2022/01/08 02:04:01;;;;;;;9.53;7.17;;;7.70;99.90;;;;;;5052066;28;20249;-67
2022/01/08 02:06:26;;;;;;;8.13;7.37;;;7.50;99.90;;;;;;5051533;28;20267;-67
2022/01/08 02:08:52;;;;;;;8.70;7.90;;;7.50;99.90;;;;;;5052442;28;20177;-67
2022/01/08 02:11:20;;;;;;;9.63;7.40;;;7.50;99.90;;;;;;5034161;28;20199;-75
2022/01/08 02:13:46;;;;;;;12.30;8.07;;;7.50;99.90;;;;;;5017623;28;20189;-70
2022/01/08 02:16:17;;;;;;;9.53;8.60;;;7.50;99.90;;;;;;5052539;28;20418;-67
2022/01/08 02:18:50;;;;;;;8.50;7.70;;;7.50;99.90;;;;;;5051602;28;20430;-67
2022/01/08 02:21:16;;;;;;;10.50;7.70;;;7.40;99.90;;;;;;5052447;28;20410;-67
2022/01/08 02:23:42;;;;;;;8.73;7.90;;;7.40;99.90;;;;;;5051481;28;20463;-68
2022/01/08 02:26:10;;;;;;;8.63;7.77;;;7.40;99.90;;;;;;5052134;28;20784;-67
2022/01/08 02:28:37;;;;;;;8.53;7.80;;;7.50;99.90;;;;;;5051779;28;20415;-69
2022/01/08 02:31:03;;;;;;;10.03;8.50;;;7.50;99.90;;;;;;5032821;28;20421;-67
2022/01/08 02:33:29;;;;;;;10.07;8.23;;;7.40;99.90;;;;;;5033386;28;20484;-68
2022/01/08 02:35:56;;;;;;;11.67;9.53;;;7.40;99.90;;;;;;5052224;28;20764;-67
2022/01/08 02:38:23;;;;;;;9.50;8.47;;;6.90;99.80;;;;;;5033589;28;20521;-75
2022/01/08 02:40:57;;;;;;;10.80;9.50;;;7.30;99.90;;;;;;5052164;28;20417;-67
2022/01/08 02:43:24;;;;;;;9.70;8.70;;;7.30;99.90;;;;;;5052262;28;20558;-75
2022/01/08 02:45:50;;;;;;;9.70;8.40;;;7.20;99.90;;;;;;5071909;28;20822;-67
2022/01/08 02:48:16;;;;;;;10.17;9.17;;;7.20;99.90;;;;;;5072427;28;20419;-67
2022/01/08 02:50:42;;;;;;;9.37;8.50;;;7.20;99.90;;;;;;5058949;28;20506;-67
2022/01/08 02:53:07;;;;;;;10.80;8.50;;;7.10;99.90;;;;;;5051821;28;20425;-68
2022/01/08 02:55:33;;;;;;;10.83;9.83;;;7.20;99.90;;;;;;5050624;28;20627;-67
2022/01/08 02:57:59;;;;;;;9.03;8.13;;;7.20;99.90;;;;;;5052095;28;20215;-68
2022/01/08 03:00:25;;;;;;;10.30;9.20;;;7.20;99.90;;;;;;5053262;28;20538;-69
2022/01/08 03:02:52;;;;;;;10.60;9.50;;;7.20;99.90;;;;;;5054896;28;20195;-68
2022/01/08 03:05:18;;;;;;;9.77;8.70;;;7.20;99.90;;;;;;5056322;28;20172;-68
2022/01/08 03:07:46;;;;;;;11.27;10.07;;;7.30;99.90;;;;;;5053786;28;20419;-67
2022/01/08 03:10:15;;;;;;;14.00;9.60;;;7.30;99.90;;;;;;5056280;28;20430;-68
2022/01/08 03:12:42;;;;;;;11.67;10.40;;;7.30;99.90;;;;;;5055288;28;20436;-68
2022/01/08 03:15:32;;;;;;;14.73;10.23;;;7.30;99.90;;;;;;5056136;28;20420;-68
2022/01/08 03:17:57;;;;;;;12.03;9.93;;;7.30;99.90;;;;;;5049741;28;20502;-67
2022/01/08 03:20:23;;;;;;;12.73;10.57;;;7.30;99.90;;;;;;5055067;28;20513;-75
2022/01/08 03:22:49;;;;;;;14.63;11.03;;;7.30;99.90;;;;;;5055233;28;20189;-68
2022/01/08 03:25:15;;;;;;;11.90;10.43;;;7.20;99.90;;;;;;5055525;28;20182;-68
2022/01/08 03:27:42;;;;;;;12.37;9.73;;;6.90;99.90;;;;;;5055174;28;20529;-68
2022/01/08 03:30:10;;;;;;;13.37;11.67;;;7.30;99.90;;;;;;5070382;28;20425;-68
2022/01/08 03:32:36;;;;;;;13.20;11.13;;;7.50;99.90;;;;;;5074892;28;20414;-67
2022/01/08 03:35:03;;;;;;;16.83;11.10;;;7.10;99.90;;;;;;5075493;28;20417;-68
2022/01/08 03:37:29;;;;;;;14.40;10.63;;;7.20;99.70;;;;;;5072991;28;20519;-68
2022/01/08 03:39:54;;;;;;;12.63;11.33;;;7.30;99.90;;;;;;5075270;28;20424;-68
2022/01/08 03:42:20;;;;;;;13.97;12.10;;;7.20;99.80;;;;;;5072561;28;20290;-67
2022/01/08 03:44:46;;;;;;;13.30;10.97;;;7.20;99.90;;;;;;5036663;28;20238;-68
2022/01/08 03:47:24;;;;;;;15.00;11.77;;;6.60;99.60;;;;;;5055240;28;20520;-68
2022/01/08 03:49:50;;;;;;;12.37;10.80;;;7.10;99.90;;;;;;5054758;28;20194;-68
2022/01/08 03:52:16;;;;;;;14.50;11.93;;;7.10;99.90;;;;;;5036863;28;20889;-68
2022/01/08 03:54:42;;;;;;;14.77;11.37;;;7.00;99.90;;;;;;5040075;28;20801;-67
2022/01/08 03:57:07;;;;;;;15.30;12.07;;;7.10;99.90;;;;;;5035462;28;20412;-68
2022/01/08 03:59:33;;;;;;;15.17;11.10;;;7.10;99.90;;;;;;5034161;28;20175;-68
2022/01/08 04:02:00;;;;;;;16.47;11.73;;;7.00;99.90;;;;;;5042208;28;20182;-68
2022/01/08 04:04:27;;;;;;;15.53;12.20;;;7.00;99.90;;;;;;5054328;28;20560;-76
2022/01/08 04:06:53;;;;;;;15.43;12.27;;;7.00;99.90;;;;;;5050009;28;20420;-68
2022/01/08 04:09:18;;;;;;;17.37;13.80;;;6.90;99.90;;;;;;5034794;28;20426;-68
2022/01/08 04:11:45;;;;;;;17.80;13.00;;;6.90;99.90;;;;;;5033416;28;20536;-69
2022/01/08 04:14:12;;;;;;;15.30;12.73;;;6.90;99.90;;;;;;5034941;28;20188;-68
2022/01/08 04:16:42;;;;;;;17.27;13.35;;;6.90;99.90;;;;;;5033837;28;20449;-68
2022/01/08 04:19:08;;;;;;;22.00;15.10;;;6.80;99.90;;;;;;5045962;28;20174;-68
2022/01/08 04:24:03;;;;;;;20.50;14.13;;;6.50;99.90;;;;;;5054498;28;20674;-68
2022/01/08 04:26:28;;;;;;;19.47;15.33;;;6.80;99.90;;;;;;5054011;28;20253;-76
2022/01/08 04:28:54;;;;;;;19.13;14.03;;;6.80;99.90;;;;;;5054834;28;20504;-68
2022/01/08 04:31:24;;;;;;;19.30;13.40;;;6.80;99.90;;;;;;5054792;28;20181;-68
2022/01/08 04:33:51;;;;;;;22.47;16.07;;;6.80;99.90;;;;;;5053508;28;20456;-68
2022/01/08 04:36:17;;;;;;;19.33;14.30;;;6.80;99.90;;;;;;5054503;28;20465;-68
2022/01/08 04:38:43;;;;;;;21.03;13.70;;;6.50;99.90;;;;;;5053480;28;20422;-67
2022/01/08 04:41:09;;;;;;;18.47;14.40;;;6.90;99.90;;;;;;5054383;28;20424;-68
2022/01/08 04:43:37;;;;;;;19.10;13.63;;;6.90;99.90;;;;;;5044164;28;20493;-68
2022/01/08 04:46:04;;;;;;;20.40;15.10;;;6.50;99.90;;;;;;5034291;28;20496;-68
2022/01/08 04:48:30;;;;;;;22.60;16.30;;;6.90;99.90;;;;;;5033457;28;20472;-75
2022/01/08 04:50:56;;;;;;;21.60;15.27;;;6.40;99.90;;;;;;5041084;28;20473;-67
2022/01/08 04:53:22;;;;;;;20.60;14.70;;;6.90;99.90;;;;;;5054112;28;20413;-68
2022/01/08 04:55:47;;;;;;;24.97;15.97;;;6.60;99.90;;;;;;5053328;28;20198;-67
2022/01/08 04:58:13;;;;;;;24.60;15.80;;;6.90;99.90;;;;;;5036168;28;20300;-68
2022/01/08 05:00:39;;;;;;;25.00;15.90;;;6.90;99.90;;;;;;5035426;28;20229;-67
2022/01/08 05:03:06;;;;;;;23.10;16.37;;;6.90;99.90;;;;;;5053806;28;20502;-67
2022/01/08 05:05:31;;;;;;;25.40;17.33;;;6.90;99.90;;;;;;5053079;28;20178;-73
2022/01/08 05:07:57;;;;;;;24.67;16.80;;;6.90;99.90;;;;;;5047523;28;20908;-68
2022/01/08 05:10:23;;;;;;;23.20;16.47;;;6.90;99.90;;;;;;5033793;28;20381;-69
2022/01/08 05:12:49;;;;;;;23.70;17.27;;;6.90;99.90;;;;;;5015321;28;20463;-68
2022/01/08 05:15:16;;;;;;;27.60;17.70;;;6.90;99.90;;;;;;5033982;28;20230;-68
2022/01/08 05:17:43;;;;;;;30.60;19.90;;;6.90;99.90;;;;;;5032855;28;20175;-68
2022/01/08 05:20:12;;;;;;;27.83;18.73;;;6.90;99.90;;;;;;5016025;28;20768;-69
2022/01/08 05:25:08;;;;;;;27.37;20.33;;;6.90;99.90;;;;;;5052889;28;20454;-67
2022/01/08 05:27:34;;;;;;;16.97;12.53;;;6.70;99.90;;;;;;5037619;28;20484;-68
2022/01/08 05:30:00;;;;;;;35.27;22.90;;;7.10;99.90;;;;;;5028210;28;20925;-69
2022/01/08 05:32:26;;;;;;;27.70;20.07;;;7.90;99.90;;;;;;5053447;28;20399;-69
2022/01/08 05:34:52;;;;;;;28.87;20.73;;;8.60;99.90;;;;;;5034719;28;20166;-69
2022/01/08 05:37:19;;;;;;;22.57;17.70;;;9.10;99.90;;;;;;5035389;28;20251;-69
2022/01/08 05:39:46;;;;;;;25.90;19.53;;;9.90;99.90;;;;;;5052112;28;20427;-69
2022/01/08 05:42:12;;;;;;;27.10;19.00;;;10.40;99.90;;;;;;5052855;28;20417;-70
2022/01/08 05:44:38;;;;;;;24.90;18.53;;;10.70;99.90;;;;;;5052064;28;20449;-69
2022/01/08 05:47:05;;;;;;;21.93;19.43;;;11.10;99.90;;;;;;5038593;28;20955;-69
2022/01/08 05:49:30;;;;;;;23.07;19.10;;;11.40;98.60;;;;;;5032878;28;20265;-73
2022/01/08 05:51:56;;;;;;;20.57;17.60;;;11.70;97.60;;;;;;5033371;28;20507;-69
2022/01/08 05:54:22;;;;;;;20.43;17.83;;;12.00;95.70;;;;;;5033483;28;20391;-69
2022/01/08 05:56:49;;;;;;;20.07;17.83;;;12.20;95.70;;;;;;5032718;28;20557;-70
2022/01/08 05:59:15;;;;;;;20.67;18.53;;;12.40;94.00;;;;;;5032990;28;20589;-70
2022/01/08 06:01:41;;;;;;;20.40;17.87;;;12.50;93.90;;;;;;5016091;28;20421;-69
2022/01/08 06:04:06;;;;;;;20.10;17.73;;;12.70;93.30;;;;;;5033065;28;20560;-70
2022/01/08 06:06:32;;;;;;;19.90;17.90;;;12.80;92.80;;;;;;5015067;28;20182;-70
2022/01/08 06:08:58;;;;;;;22.90;18.30;;;12.90;91.90;;;;;;5033184;28;20172;-71
2022/01/08 06:11:23;;;;;;;20.23;17.20;;;13.00;90.80;;;;;;5034024;28;20187;-69
2022/01/08 06:13:49;;;;;;;20.50;16.80;;;13.10;91.60;;;;;;5032110;28;20636;-68
2022/01/08 06:16:15;;;;;;;18.97;16.97;;;13.20;90.80;;;;;;5032746;28;20664;-68
2022/01/08 06:18:41;;;;;;;23.67;18.70;;;13.30;90.70;;;;;;5037129;28;20432;-65
2022/01/08 06:21:07;;;;;;;20.27;18.17;;;13.30;87.90;;;;;;5034552;28;20620;-66
2022/01/08 06:23:33;;;;;;;23.00;18.73;;;13.00;79.00;;;;;;5047709;28;20554;-75
2022/01/08 06:25:59;;;;;;;19.67;17.67;;;12.50;77.90;;;;;;5032178;28;20428;-67
2022/01/08 06:28:25;;;;;;;23.17;18.50;;;11.90;78.40;;;;;;5041346;28;20992;-67
2022/01/08 06:30:53;;;;;;;23.77;18.60;;;11.40;79.50;;;;;;5051095;28;20176;-66
2022/01/08 06:33:19;;;;;;;26.87;17.50;;;10.80;80.80;;;;;;5051706;28;20441;-67
2022/01/08 06:35:45;;;;;;;23.00;17.70;;;10.30;82.70;;;;;;5050646;28;20908;-67
2022/01/08 06:38:11;;;;;;;25.77;18.00;;;9.90;86.00;;;;;;5008505;28;20185;-68
2022/01/08 06:40:37;;;;;;;20.50;18.30;;;9.50;88.00;;;;;;5017779;28;20414;-66
2022/01/08 06:43:03;;;;;;;19.83;17.10;;;9.20;89.70;;;;;;5039957;28;20623;-70
2022/01/08 06:45:30;;;;;;;22.83;17.43;;;8.90;90.60;;;;;;5036469;28;20469;-67
2022/01/08 06:47:56;;;;;;;32.03;17.37;;;8.60;91.40;;;;;;5027711;28;20456;-67
2022/01/08 06:50:22;;;;;;;22.90;16.20;;;8.40;92.20;;;;;;5040094;28;20184;-71
2022/01/08 06:52:47;;;;;;;24.37;17.30;;;8.20;92.90;;;;;;5006845;28;20290;-67
2022/01/08 06:55:13;;;;;;;22.87;16.17;;;8.00;93.40;;;;;;5050077;28;20192;-67
2022/01/08 06:57:39;;;;;;;21.40;16.00;;;7.90;94.10;;;;;;5034575;28;20664;-67
2022/01/08 07:00:05;;;;;;;21.10;15.40;;;7.70;94.50;;;;;;5017657;28;20216;-67
2022/01/08 07:02:31;;;;;;;22.87;16.73;;;7.60;94.70;;;;;;5020735;28;20184;-67
2022/01/08 07:04:56;;;;;;;22.10;17.10;;;7.40;95.00;;;;;;5039182;28;20477;-67
2022/01/08 07:07:23;;;;;;;20.50;14.93;;;7.30;95.60;;;;;;5033418;28;20583;-68
2022/01/08 07:09:48;;;;;;;24.83;17.30;;;7.20;95.80;;;;;;5046140;28;20172;-66
2022/01/08 07:12:14;;;;;;;22.80;15.50;;;7.10;96.20;;;;;;5051821;28;20815;-67
2022/01/08 07:14:40;;;;;;;20.37;14.90;;;7.00;96.60;;;;;;5050795;28;20553;-67
2022/01/08 07:17:06;;;;;;;20.57;16.47;;;6.90;97.20;;;;;;5051739;28;20250;-67
2022/01/08 07:19:31;;;;;;;21.37;16.17;;;6.90;97.60;;;;;;5027908;28;20631;-67
2022/01/08 07:21:59;;;;;;;21.07;15.97;;;6.80;98.10;;;;;;5029423;28;20191;-67
2022/01/08 07:24:25;;;;;;;21.53;15.83;;;6.70;98.50;;;;;;5041324;28;20201;-67
2022/01/08 07:26:51;;;;;;;18.13;13.73;;;6.70;98.80;;;;;;5043099;28;20429;-67
2022/01/08 07:29:16;;;;;;;21.73;15.87;;;6.80;99.20;;;;;;5032935;28;20497;-66
2022/01/08 07:31:42;;;;;;;20.40;14.90;;;6.70;99.30;;;;;;5049031;28;20241;-67
2022/01/08 07:34:08;;;;;;;22.00;15.60;;;6.50;99.50;;;;;;5031783;28;20182;-67
2022/01/08 07:36:33;;;;;;;21.73;15.37;;;6.50;99.70;;;;;;5022191;28;20175;-75
2022/01/08 07:38:59;;;;;;;23.20;15.43;;;6.50;99.90;;;;;;5050878;28;20188;-67
2022/01/08 07:41:25;;;;;;;21.33;16.57;;;6.50;99.90;;;;;;5033759;28;20269;-67
2022/01/08 07:43:51;;;;;;;22.48;17.30;;;6.50;99.90;;;;;;5044503;28;20913;-71
2022/01/08 07:46:16;;;;;;;23.63;16.57;;;6.00;99.90;;;;;;5051883;28;20269;-68
2022/01/08 07:48:43;;;;;;;20.10;16.33;;;6.60;99.90;;;;;;5022996;28;20210;-68
2022/01/08 07:51:09;;;;;;;21.87;15.77;;;6.60;99.90;;;;;;5002340;28;20186;-68
2022/01/08 07:53:35;;;;;;;19.88;14.30;;;6.80;99.90;;;;;;5044868;28;20421;-75
2022/01/08 07:56:01;;;;;;;19.27;14.33;;;6.60;99.90;;;;;;5054803;28;20278;-68
2022/01/08 07:58:26;;;;;;;19.33;14.23;;;6.80;99.90;;;;;;5052295;28;20183;-68
2022/01/08 08:00:53;;;;;;;20.63;14.40;;;6.20;99.90;;;;;;5034907;28;20179;-69
2022/01/08 08:03:20;;;;;;;21.50;15.33;;;6.20;99.90;;;;;;5035795;28;20219;-68
2022/01/08 08:05:46;;;;;;;18.53;14.27;;;6.20;99.90;;;;;;5048422;28;20536;-68
2022/01/08 08:08:19;;;;;;;23.97;16.67;;;6.50;99.90;;;;;;5054862;28;20483;-69
2022/01/08 08:10:53;;;;;;;24.73;15.50;;;6.60;99.90;;;;;;5019767;28;20422;-69
2022/01/08 08:13:20;;;;;;;21.93;15.67;;;6.50;99.90;;;;;;5035068;28;20558;-69
2022/01/08 08:15:47;;;;;;;18.30;14.50;;;6.20;99.90;;;;;;5016949;28;20758;-69
2022/01/08 08:18:13;;;;;;;21.87;15.60;;;6.50;99.90;;;;;;5043063;28;20429;-69
2022/01/08 08:20:40;;;;;;;213.10;116.33;;;6.10;99.90;;;;;;5054234;28;21000;-70
2022/01/08 08:23:06;;;;;;;149.43;85.80;;;6.60;99.90;;;;;;5047370;28;20174;-68
2022/01/08 08:25:31;;;;;;;27.93;19.70;;;6.30;99.90;;;;;;5028126;28;20417;-69
2022/01/08 08:27:57;;;;;;;20.93;15.30;;;6.60;99.90;;;;;;5049018;28;20428;-68
2022/01/08 08:30:24;;;;;;;19.70;14.47;;;6.50;99.90;;;;;;5046577;28;20892;-68
2022/01/08 08:32:50;;;;;;;21.73;14.40;;;6.50;99.90;;;;;;5043449;28;20207;-68
2022/01/08 08:35:16;;;;;;;21.37;13.97;;;6.50;99.90;;;;;;5049969;28;20887;-68
2022/01/08 08:37:42;;;;;;;22.83;14.20;;;6.70;99.90;;;;;;5043295;28;20440;-68
2022/01/08 08:40:13;;;;;;;22.53;14.87;;;6.50;99.90;;;;;;5025017;28;20454;-68
2022/01/08 08:42:40;;;;;;;16.87;12.70;;;6.50;99.90;;;;;;5041959;28;20466;-76
2022/01/08 08:45:06;;;;;;;21.53;13.90;;;6.50;99.90;;;;;;5041846;28;20461;-68
2022/01/08 08:47:32;;;;;;;20.30;13.30;;;6.70;99.90;;;;;;5025594;28;20427;-71
2022/01/08 08:49:59;;;;;;;17.40;12.70;;;6.60;99.90;;;;;;5025200;28;20440;-68
2022/01/08 08:52:25;;;;;;;18.60;13.80;;;6.70;99.90;;;;;;5038259;28;20660;-68
2022/01/08 08:54:52;;;;;;;18.20;13.20;;;6.70;99.90;;;;;;5033563;28;20804;-67
2022/01/08 08:57:18;;;;;;;18.43;13.03;;;6.60;99.90;;;;;;5045773;28;20935;-67
2022/01/08 08:59:44;;;;;;;17.07;12.90;;;6.60;99.90;;;;;;5038567;28;20456;-67
2022/01/08 09:02:10;;;;;;;16.13;11.80;;;6.60;99.90;;;;;;5050620;28;20425;-67
2022/01/08 09:04:37;;;;;;;20.10;11.93;;;6.60;99.90;;;;;;5050258;28;20206;-69
2022/01/08 09:07:04;;;;;;;13.43;11.57;;;7.00;99.90;;;;;;5009545;28;20647;-69
2022/01/08 09:09:30;;;;;;;17.60;12.13;;;7.90;99.90;;;;;;5052889;28;20424;-73
2022/01/08 09:11:55;;;;;;;18.07;12.17;;;8.80;99.90;;;;;;5044133;28;20487;-73
2022/01/08 09:14:21;;;;;;;189.83;110.57;;;9.70;99.90;;;;;;5035747;28;20507;-71
2022/01/08 09:16:50;;;;;;;22.27;17.13;;;10.90;99.90;;;;;;5052195;28;20177;-72
2022/01/08 09:19:17;;;;;;;13.43;11.20;;;11.80;97.40;;;;;;5053943;28;20499;-72
2022/01/08 09:21:43;;;;;;;16.93;12.77;;;12.30;97.10;;;;;;5052472;28;20782;-74
2022/01/08 09:24:10;;;;;;;19.00;15.03;;;12.60;95.70;;;;;;5053615;28;20509;-72
2022/01/08 09:26:35;;;;;;;14.80;12.20;;;12.60;92.40;;;;;;5043316;28;20421;-71
2022/01/08 09:29:01;;;;;;;18.07;13.00;;;12.70;93.70;;;;;;5042487;28;20781;-73
2022/01/08 09:31:27;;;;;;;15.40;12.10;;;12.80;93.60;;;;;;5048931;28;20182;-72
2022/01/08 09:33:53;;;;;;;14.93;13.33;;;12.90;92.60;;;;;;5052867;28;20637;-72
2022/01/08 09:36:19;;;;;;;18.37;13.77;;;13.00;91.80;;;;;;5050712;28;20311;-71
2022/01/08 09:38:44;;;;;;;18.60;12.70;;;13.20;92.30;;;;;;5033050;28;20188;-71
2022/01/08 09:41:10;;;;;;;14.10;11.17;;;13.20;92.10;;;;;;5036098;28;20419;-72
2022/01/08 09:43:37;;;;;;;18.23;13.43;;;13.30;90.20;;;;;;5041457;28;20624;-72
2022/01/08 09:46:03;;;;;;;17.40;15.20;;;13.40;89.00;;;;;;5032873;28;20424;-69
2022/01/08 09:48:29;;;;;;;15.00;12.57;;;13.30;83.40;;;;;;5052877;28;20191;-70
2022/01/08 09:50:55;;;;;;;17.17;13.27;;;12.80;82.00;;;;;;5049289;28;20423;-70
2022/01/08 09:53:21;;;;;;;493.37;288.67;;;12.20;83.30;;;;;;5046672;28;20539;-69
2022/01/08 09:55:47;;;;;;;80.50;52.43;;;11.80;85.50;;;;;;5042885;28;20180;-70
2022/01/08 09:58:13;;;;;;;15.70;14.10;;;11.30;88.70;;;;;;5045138;28;20423;-68
2022/01/08 10:00:40;;;;;;;15.83;12.23;;;10.80;89.70;;;;;;5052110;28;20438;-70
2022/01/08 10:03:15;;;;;;;13.90;11.70;;;10.20;91.00;;;;;;5051828;28;20184;-69
2022/01/08 10:05:47;;;;;;;16.63;13.03;;;9.80;92.40;;;;;;5043965;28;20556;-78
2022/01/08 10:08:14;;;;;;;16.83;13.53;;;9.20;94.00;;;;;;5032884;28;20410;-68
2022/01/08 10:10:40;;;;;;;22.07;13.63;;;8.80;95.10;;;;;;5032689;28;20405;-69
2022/01/08 10:13:06;;;;;;;17.80;13.10;;;8.40;96.30;;;;;;5031546;28;20562;-69
2022/01/08 10:18:31;;;;;;;19.50;13.00;;;8.00;98.20;;;;;;5048134;28;20776;-69
2022/01/08 10:20:58;;;;;;;18.60;12.93;;;7.90;98.70;;;;;;5032446;28;20446;-68
2022/01/08 10:23:30;;;;;;;18.67;13.33;;;7.80;99.10;;;;;;5032754;28;20465;-69
2022/01/08 10:26:10;;;;;;;20.83;13.60;;;7.70;99.30;;;;;;5041419;28;20415;-69
2022/01/08 10:28:52;;;;;;;20.20;14.33;;;7.50;99.90;;;;;;5029336;28;20506;-67
2022/01/08 10:31:25;;;;;;;16.60;13.03;;;7.40;99.90;;;;;;5039792;28;20402;-68
2022/01/08 10:33:53;;;;;;;27.40;13.53;;;7.40;99.90;;;;;;5023159;28;20438;-71
2022/01/08 10:36:27;;;;;;;18.93;12.67;;;7.30;99.90;;;;;;5039705;28;20426;-69
2022/01/08 10:38:55;;;;;;;17.73;13.07;;;7.20;99.90;;;;;;5023268;28;20416;-68
2022/01/08 10:41:22;;;;;;;16.87;11.73;;;7.20;99.90;;;;;;5037910;28;20473;-69
2022/01/08 10:44:03;;;;;;;16.00;11.07;;;7.20;99.90;;;;;;5037759;28;20471;-68
2022/01/08 10:46:29;;;;;;;17.03;11.27;;;7.10;99.90;;;;;;5049866;28;20457;-67
2022/01/08 10:48:54;;;;;;;16.00;11.33;;;7.10;99.90;;;;;;5050978;28;20831;-68
2022/01/08 10:51:23;;;;;;;423.57;223.20;;;7.20;99.90;;;;;;5051476;28;20603;-68
2022/01/08 10:53:54;;;;;;;78.17;45.50;;;7.20;99.90;;;;;;5050907;28;20603;-68
2022/01/08 10:56:22;;;;;;;17.00;11.83;;;7.30;99.90;;;;;;5051572;28;20427;-67
2022/01/08 10:58:52;;;;;;;14.97;11.07;;;7.30;99.90;;;;;;5050921;28;20772;-68
2022/01/08 11:01:42;;;;;;;15.80;9.90;;;7.40;99.90;;;;;;5052085;28;20403;-67
2022/01/08 11:04:09;;;;;;;16.50;9.93;;;7.30;99.90;;;;;;5033449;28;20988;-67
2022/01/08 11:06:57;;;;;;;16.73;10.33;;;7.10;99.90;;;;;;5051270;28;20457;-68
2022/01/08 11:09:24;;;;;;;14.83;9.93;;;7.10;99.90;;;;;;5052448;28;20445;-67
2022/01/08 11:11:51;;;;;;;12.67;9.43;;;7.10;99.90;;;;;;5051815;28;20426;-68
2022/01/08 11:17:08;;;;;;;11.53;8.53;;;7.20;99.90;;;;;;5051194;28;20927;-68
2022/01/08 11:19:36;;;;;;;13.40;9.23;;;7.30;99.90;;;;;;5032482;28;20451;-68
2022/01/08 11:22:02;;;;;;;16.40;8.40;;;7.20;99.90;;;;;;5051383;28;20465;-68
2022/01/08 11:24:30;;;;;;;12.30;9.33;;;7.10;99.90;;;;;;5002777;28;20502;-67
2022/01/08 11:26:58;;;;;;;14.97;9.47;;;7.20;99.90;;;;;;5034956;28;20440;-68
2022/01/08 11:29:26;;;;;;;15.40;8.90;;;7.20;99.90;;;;;;5035203;28;20482;-68
2022/01/08 11:31:59;;;;;;;11.37;7.90;;;7.30;99.90;;;;;;5041158;28;20757;-68
2022/01/08 11:34:28;;;;;;;9.27;8.27;;;7.20;99.90;;;;;;5019383;28;20423;-67
2022/01/08 11:36:56;;;;;;;8.90;7.70;;;7.20;99.90;;;;;;5034561;28;20445;-68
2022/01/08 11:39:26;;;;;;;11.13;8.07;;;7.10;99.90;;;;;;5035473;28;20415;-68
2022/01/08 11:41:53;;;;;;;12.33;7.70;;;7.20;99.90;;;;;;5034564;28;20404;-68
2022/01/08 11:44:19;;;;;;;10.67;7.87;;;7.20;99.80;;;;;;5070939;28;20477;-68
2022/01/08 11:46:46;;;;;;;8.07;6.93;;;7.20;99.80;;;;;;5073991;28;20413;-67
2022/01/08 11:49:14;;;;;;;8.93;7.47;;;7.30;99.50;;;;;;5074416;28;20425;-67
2022/01/08 11:51:39;;;;;;;9.53;7.83;;;7.10;99.40;;;;;;5075319;28;20445;-68
2022/01/08 11:54:06;;;;;;;10.17;8.00;;;6.70;99.40;;;;;;5073330;28;20426;-67
2022/01/08 11:56:34;;;;;;;7.03;6.13;;;7.40;99.30;;;;;;5074993;28;20174;-68
2022/01/08 11:59:07;;;;;;;8.60;6.43;;;7.10;98.70;;;;;;5072981;28;20426;-69
2022/01/08 12:01:34;;;;;;;368.70;208.37;;;7.00;99.00;;;;;;5054961;28;20434;-69
2022/01/08 12:04:00;;;;;;;15.03;9.43;;;7.10;99.50;;;;;;5068097;28;21040;-69
2022/01/08 12:06:29;;;;;;;6.70;6.10;;;7.10;99.10;;;;;;5074488;28;20453;-68
2022/01/08 12:09:17;;;;;;;8.87;6.47;;;7.20;99.10;;;;;;5056203;28;20458;-69
2022/01/08 12:11:46;;;;;;;8.87;6.60;;;7.10;99.00;;;;;;5055098;28;20407;-68
2022/01/08 12:14:18;;;;;;;6.80;6.10;;;6.90;98.70;;;;;;5052816;28;20441;-69
2022/01/08 12:16:47;;;;;;;8.63;6.30;;;7.00;99.10;;;;;;5054648;28;20418;-69
2022/01/08 12:19:36;;;;;;;6.47;5.50;;;7.20;99.00;;;;;;5068910;28;20415;-68
2022/01/08 12:22:22;;;;;;;9.03;5.17;;;7.10;98.80;;;;;;5053997;28;20390;-68
2022/01/08 12:24:51;;;;;;;6.53;5.07;;;7.00;98.10;;;;;;5055886;28;20954;-76
2022/01/08 12:27:36;;;;;;;8.10;5.70;;;7.10;99.10;;;;;;5073216;28;20445;-67
2022/01/08 12:30:17;;;;;;;6.40;5.20;;;7.30;98.40;;;;;;5073868;28;20434;-68
2022/01/08 12:32:47;;;;;;;6.27;4.60;;;7.30;98.00;;;;;;5072806;28;20429;-68
2022/01/08 12:35:17;;;;;;;5.50;5.00;;;7.30;97.00;;;;;;5071543;28;20957;-67
2022/01/08 12:37:47;;;;;;;7.93;5.10;;;7.20;97.30;;;;;;5074150;28;20908;-67
2022/01/08 12:40:31;;;;;;;6.40;4.80;;;7.20;97.30;;;;;;5073347;28;20490;-68
2022/01/08 12:42:57;;;;;;;8.27;5.07;;;7.30;97.10;;;;;;5045461;28;20474;-67
2022/01/08 12:45:29;;;;;;;374.33;176.23;;;7.30;97.00;;;;;;5016458;28;20823;-67
2022/01/08 12:48:08;;;;;;;28.63;15.70;;;7.20;97.20;;;;;;5044837;28;20430;-68
2022/01/08 12:50:43;;;;;;;6.73;4.67;;;7.20;97.40;;;;;;5016638;28;20427;-68
2022/01/08 12:53:13;;;;;;;4.67;4.17;;;7.40;97.30;;;;;;5015894;28;20402;-68
2022/01/08 12:56:02;;;;;;;4.90;4.10;;;7.20;96.40;;;;;;5034614;28;20538;-67
2022/01/08 12:58:30;;;;;;;6.10;4.60;;;7.10;96.80;;;;;;5006317;28;20439;-67
2022/01/08 13:01:11;;;;;;;4.63;4.15;;;7.00;97.10;;;;;;5015468;28;20443;-68
2022/01/08 13:03:45;;;;;;;5.97;4.83;;;6.90;97.00;;;;;;5033961;28;20208;-67
2022/01/08 13:06:13;;;;;;;5.70;4.60;;;6.70;97.70;;;;;;5049670;28;20663;-68
2022/01/08 13:08:44;;;;;;;5.20;4.37;;;6.60;97.60;;;;;;5048127;28;20403;-67
2022/01/08 13:11:13;;;;;;;5.97;4.70;;;6.60;97.90;;;;;;5053082;28;20384;-68